Terminal Aerodrome Forecast
Issued by NWS

Home | Current Version | Previous Version | Text Only | Print | Product List | Glossary On
Versions: 1 2 3 4 5 6 7 8 9 10 11 12
000
FTUS45 KLKN 252320
TAFELY
TAF
KELY 252320Z 2600/2624 20010G20KT P6SM FEW120
     FM260200 19008KT P6SM SKC
     FM262000 25010G20KT P6SM FEW120=

USA.gov is the U.S. government's official web portal to all federal, state and local government web resources and services.